La Joya, New Mexico
Current Conditions -  °F | °C
As of 7:35 AM on Thursday 29 Jan 2015 (Local Time) from KE80 Reporting Station
Clear Clear  
Wind Chill:   Ceiling: Unl
Heat Index:   Visibility: 10mi
Dew Point:   Wind: 6mph
Humidity: 84%   Direction: 240°WSW
Pressure: 30.34"   Gusts: NA
Location:  34.35°N, 106.84°W
Report Text: KE80 291435Z AUTO 24005KT 10SM CLR 02/00 A3034 RMK AO2 T00240000
Loading
Personal Weather Stations






























Interactive Weather Map New forecast layout! Learn more

10-Day Weather Forecast

Advertisements
Track Severe Weather on mobile